Portada
METAR-TAF:

METAR-TAF

Aeroports :

Curaçao, Antilles Neerlandeses

latitud: 12-12N, longitud: 068-58W, altitud: 9 m

Observació

L'informe es va fer fa 24 minuts, a les 21:00 UTC
Vent 12 kt del Est
Temperatura 28°C
Humitat 70%
Pressió 1015 hPa
Visibilitat 10 km o més
Núvols disperses a una alçada de 2500 ft

METAR: TNCC 222100Z AUTO 08012KT 9999 SCT025 28/22 Q1015

Hora: 17:24 (21:24 UTC)

Pronòstic

L'informe es va fer fa 5 hores i 39 minuts, a les 15:45 UTC
Pronòstic vàlid del 22 a les 18 UTC al 23 a les 18 UTC
Vent 14 kt del Est
Visibilitat 10 km o més
Núvols disperses a una alçada de 2400 ft
Evolucionant progressivament
l' 22 a les 20 UTC al 22 a les 22 UTC
Vent 15 kt del Est amb ràfegues de 26 kt
Probabilitat 30% :
Temporalment
l' 22 a les 22 UTC al 23 a les 14 UTC
Visibilitat: 7000 m
Cel ennuvolat a una alçada de 1500 ft
xàfecs de pluja

TAF: TNCC 221545Z 2218/2318 10014KT 9999 SCT024 BECMG 2220/2222 09015G26KT PROB30 TEMPO 2222/2314 7000 -SHRA BKN015

Observacions i pronòstics meteorològics de més de 4000 aeroports (METAR i TAF).

Les estacions disponibles són els punts grocs i vermells al mapa.

Posi el ratolí al punt desitjat per veure el nom de l'estació.

Feu clic per veure les observacions i els pronòstics meteorològics.

Per canviar el mapa: feu clic els botons verds amb una creu de color negre per apropar; al botó verd amb un guió per allunyar la imatge; o en les fletxes verdes per a mapes adjacents.


METAR-TAF: